sensor_id;sensor_type;location;lat;lon;timestamp;pressure;altitude;pressure_sealevel;temperature
69857;BMP280;57147;53.582;10.112;2023-08-24T00:01:26;101597.81;;;20.39
69857;BMP280;57147;53.582;10.112;2023-08-24T00:06:27;101594.66;;;20.36
69857;BMP280;57147;53.582;10.112;2023-08-24T00:11:27;101587.06;;;20.26
69857;BMP280;57147;53.582;10.112;2023-08-24T00:16:30;101590.88;;;20.25
69857;BMP280;57147;53.582;10.112;2023-08-24T00:21:31;101604.34;;;20.25
69857;BMP280;57147;53.582;10.112;2023-08-24T00:26:32;101585.69;;;20.20
69857;BMP280;57147;53.582;10.112;2023-08-24T00:31:35;101591.97;;;20.24
69857;BMP280;57147;53.582;10.112;2023-08-24T00:36:37;101584.34;;;20.26
69857;BMP280;57147;53.582;10.112;2023-08-24T00:41:38;101582.09;;;20.28
69857;BMP280;57147;53.582;10.112;2023-08-24T00:46:41;101584.34;;;20.26
69857;BMP280;57147;53.582;10.112;2023-08-24T00:51:42;101581.00;;;20.17
69857;BMP280;57147;53.582;10.112;2023-08-24T00:56:42;101574.03;;;20.16
69857;BMP280;57147;53.582;10.112;2023-08-24T01:01:47;101575.38;;;20.10
69857;BMP280;57147;53.582;10.112;2023-08-24T01:06:47;101584.81;;;20.16
69857;BMP280;57147;53.582;10.112;2023-08-24T01:11:55;101574.03;;;20.04
69857;BMP280;57147;53.582;10.112;2023-08-24T01:17:03;101585.28;;;20.06
69857;BMP280;57147;53.582;10.112;2023-08-24T01:22:08;101592.91;;;20.04
69857;BMP280;57147;53.582;10.112;2023-08-24T01:27:18;101601.00;;;19.92
69857;BMP280;57147;53.582;10.112;2023-08-24T01:32:19;101590.88;;;19.89
69857;BMP280;57147;53.582;10.112;2023-08-24T01:37:20;101591.56;;;19.86
69857;BMP280;57147;53.582;10.112;2023-08-24T01:42:26;101587.28;;;19.85
69857;BMP280;57147;53.582;10.112;2023-08-24T01:47:27;101583.69;;;19.81
69857;BMP280;57147;53.582;10.112;2023-08-24T01:52:29;101586.06;;;19.82
69857;BMP280;57147;53.582;10.112;2023-08-24T01:57:33;101556.97;;;19.64
69857;BMP280;57147;53.582;10.112;2023-08-24T02:02:34;101569.53;;;19.72
69857;BMP280;57147;53.582;10.112;2023-08-24T02:07:35;101568.63;;;19.68
69857;BMP280;57147;53.582;10.112;2023-08-24T02:12:38;101558.53;;;19.65
69857;BMP280;57147;53.582;10.112;2023-08-24T02:17:38;101562.22;;;19.60
69857;BMP280;57147;53.582;10.112;2023-08-24T02:22:39;101541.94;;;19.51
69857;BMP280;57147;53.582;10.112;2023-08-24T02:27:42;101541.28;;;19.42
69857;BMP280;57147;53.582;10.112;2023-08-24T02:32:43;101522.16;;;19.34
69857;BMP280;57147;53.582;10.112;2023-08-24T02:37:43;101524.41;;;19.32
69857;BMP280;57147;53.582;10.112;2023-08-24T02:42:47;101521.50;;;19.25
69857;BMP280;57147;53.582;10.112;2023-08-24T02:47:47;101520.56;;;19.21
69857;BMP280;57147;53.582;10.112;2023-08-24T02:52:48;101522.03;;;19.19
69857;BMP280;57147;53.582;10.112;2023-08-24T02:57:51;101519.88;;;19.12
69857;BMP280;57147;53.582;10.112;2023-08-24T03:02:51;101506.63;;;19.07
69857;BMP280;57147;53.582;10.112;2023-08-24T03:07:52;101509.66;;;19.06
69857;BMP280;57147;53.582;10.112;2023-08-24T03:12:55;101504.81;;;18.99
69857;BMP280;57147;53.582;10.112;2023-08-24T03:17:56;101511.50;;;18.93
69857;BMP280;57147;53.582;10.112;2023-08-24T03:22:56;101498.25;;;18.88
69857;BMP280;57147;53.582;10.112;2023-08-24T03:27:59;101488.16;;;18.85
69857;BMP280;57147;53.582;10.112;2023-08-24T03:33:00;101494.22;;;18.82
69857;BMP280;57147;53.582;10.112;2023-08-24T03:38:01;101487.25;;;18.81
69857;BMP280;57147;53.582;10.112;2023-08-24T03:43:04;101495.41;;;18.72
69857;BMP280;57147;53.582;10.112;2023-08-24T03:48:05;101428.25;;;18.31
69857;BMP280;57147;53.582;10.112;2023-08-24T03:53:06;101485.03;;;18.50
69857;BMP280;57147;53.582;10.112;2023-08-24T03:58:09;101489.41;;;18.55
69857;BMP280;57147;53.582;10.112;2023-08-24T04:03:10;101489.63;;;18.50
69857;BMP280;57147;53.582;10.112;2023-08-24T04:08:11;101490.75;;;18.49
69857;BMP280;57147;53.582;10.112;2023-08-24T04:13:14;101476.59;;;18.39
69857;BMP280;57147;53.582;10.112;2023-08-24T04:18:14;101463.34;;;18.34
69857;BMP280;57147;53.582;10.112;2023-08-24T04:23:15;101475.00;;;18.38
69857;BMP280;57147;53.582;10.112;2023-08-24T04:28:18;101443.56;;;18.10
69857;BMP280;57147;53.582;10.112;2023-08-24T04:33:19;101462.59;;;18.25
69857;BMP280;57147;53.582;10.112;2023-08-24T04:38:20;101476.19;;;18.29
69857;BMP280;57147;53.582;10.112;2023-08-24T04:43:24;101468.44;;;18.27
69857;BMP280;57147;53.582;10.112;2023-08-24T04:48:25;101474.03;;;18.22
69857;BMP280;57147;53.582;10.112;2023-08-24T04:53:26;101464.38;;;18.21
69857;BMP280;57147;53.582;10.112;2023-08-24T04:58:29;101472.88;;;18.23
69857;BMP280;57147;53.582;10.112;2023-08-24T05:03:29;101474.47;;;18.24
69857;BMP280;57147;53.582;10.112;2023-08-24T05:08:30;101466.47;;;18.16
69857;BMP280;57147;53.582;10.112;2023-08-24T05:13:33;101468.00;;;18.25
69857;BMP280;57147;53.582;10.112;2023-08-24T05:18:34;101477.63;;;18.26
69857;BMP280;57147;53.582;10.112;2023-08-24T05:23:35;101480.75;;;18.28
69857;BMP280;57147;53.582;10.112;2023-08-24T05:28:38;101480.09;;;18.31
69857;BMP280;57147;53.582;10.112;2023-08-24T05:33:39;101476.44;;;18.36
69857;BMP280;57147;53.582;10.112;2023-08-24T05:38:40;101496.50;;;18.38
69857;BMP280;57147;53.582;10.112;2023-08-24T05:43:46;101508.63;;;18.44
69857;BMP280;57147;53.582;10.112;2023-08-24T05:48:46;101504.19;;;18.49
69857;BMP280;57147;53.582;10.112;2023-08-24T05:53:47;101509.34;;;18.54
69857;BMP280;57147;53.582;10.112;2023-08-24T05:58:50;101518.81;;;18.60
69857;BMP280;57147;53.582;10.112;2023-08-24T06:03:51;101533.38;;;18.59
69857;BMP280;57147;53.582;10.112;2023-08-24T06:08:52;101529.81;;;18.67
69857;BMP280;57147;53.582;10.112;2023-08-24T06:13:55;101537.56;;;18.68
69857;BMP280;57147;53.582;10.112;2023-08-24T06:18:55;101524.00;;;18.44
69857;BMP280;57147;53.582;10.112;2023-08-24T06:23:56;101542.59;;;18.70
69857;BMP280;57147;53.582;10.112;2023-08-24T06:28:59;101545.53;;;18.77
69857;BMP280;57147;53.582;10.112;2023-08-24T06:34:00;101527.19;;;18.79
69857;BMP280;57147;53.582;10.112;2023-08-24T06:39:00;101520.69;;;18.92
69857;BMP280;57147;53.582;10.112;2023-08-24T06:44:03;101538.50;;;18.84
69857;BMP280;57147;53.582;10.112;2023-08-24T06:49:04;101559.28;;;18.96
69857;BMP280;57147;53.582;10.112;2023-08-24T06:54:05;101574.78;;;18.99
69857;BMP280;57147;53.582;10.112;2023-08-24T06:59:08;101556.81;;;18.91
69857;BMP280;57147;53.582;10.112;2023-08-24T07:04:09;101527.94;;;19.00
69857;BMP280;57147;53.582;10.112;2023-08-24T07:09:09;101512.00;;;19.07
69857;BMP280;57147;53.582;10.112;2023-08-24T07:14:13;101527.72;;;19.17
69857;BMP280;57147;53.582;10.112;2023-08-24T07:19:13;101526.00;;;19.33
69857;BMP280;57147;53.582;10.112;2023-08-24T07:24:14;101535.75;;;19.38
69857;BMP280;57147;53.582;10.112;2023-08-24T07:29:17;101564.38;;;19.42
69857;BMP280;57147;53.582;10.112;2023-08-24T07:34:18;101571.13;;;19.49
69857;BMP280;57147;53.582;10.112;2023-08-24T07:39:18;101570.44;;;19.52
69857;BMP280;57147;53.582;10.112;2023-08-24T07:44:21;101566.41;;;19.46
69857;BMP280;57147;53.582;10.112;2023-08-24T07:49:22;101546.19;;;19.39
69857;BMP280;57147;53.582;10.112;2023-08-24T07:54:23;101571.56;;;19.63
69857;BMP280;57147;53.582;10.112;2023-08-24T07:59:26;101561.00;;;19.70
69857;BMP280;57147;53.582;10.112;2023-08-24T08:04:27;101558.22;;;19.78
69857;BMP280;57147;53.582;10.112;2023-08-24T08:09:27;101547.97;;;19.72
69857;BMP280;57147;53.582;10.112;2023-08-24T08:14:30;101550.66;;;19.96
69857;BMP280;57147;53.582;10.112;2023-08-24T08:19:31;101543.03;;;19.98
69857;BMP280;57147;53.582;10.112;2023-08-24T08:24:31;101529.34;;;20.03
69857;BMP280;57147;53.582;10.112;2023-08-24T08:29:35;101529.78;;;20.05
69857;BMP280;57147;53.582;10.112;2023-08-24T08:34:35;101537.16;;;20.20
69857;BMP280;57147;53.582;10.112;2023-08-24T08:39:36;101534.00;;;20.30
69857;BMP280;57147;53.582;10.112;2023-08-24T08:44:41;101523.88;;;20.40
69857;BMP280;57147;53.582;10.112;2023-08-24T08:49:42;101518.63;;;20.47
69857;BMP280;57147;53.582;10.112;2023-08-24T08:54:43;101517.44;;;20.60
69857;BMP280;57147;53.582;10.112;2023-08-24T08:59:47;101513.72;;;20.64
69857;BMP280;57147;53.582;10.112;2023-08-24T09:04:50;101470.97;;;20.51
69857;BMP280;57147;53.582;10.112;2023-08-24T09:09:51;101501.16;;;21.00
69857;BMP280;57147;53.582;10.112;2023-08-24T09:14:54;101491.69;;;21.21
69857;BMP280;57147;53.582;10.112;2023-08-24T09:19:58;101492.44;;;21.38
69857;BMP280;57147;53.582;10.112;2023-08-24T09:24:59;101523.63;;;21.51
69857;BMP280;57147;53.582;10.112;2023-08-24T09:30:04;101524.50;;;21.55
69857;BMP280;57147;53.582;10.112;2023-08-24T09:35:08;101530.94;;;21.66
69857;BMP280;57147;53.582;10.112;2023-08-24T09:40:10;101528.47;;;21.76
69857;BMP280;57147;53.582;10.112;2023-08-24T09:45:14;101521.69;;;21.67
69857;BMP280;57147;53.582;10.112;2023-08-24T09:50:15;101485.63;;;21.44
69857;BMP280;57147;53.582;10.112;2023-08-24T09:55:20;101484.03;;;21.58
69857;BMP280;57147;53.582;10.112;2023-08-24T10:00:24;101484.00;;;21.74
69857;BMP280;57147;53.582;10.112;2023-08-24T10:05:26;101481.94;;;21.87
69857;BMP280;57147;53.582;10.112;2023-08-24T10:10:29;101478.78;;;22.00
69857;BMP280;57147;53.582;10.112;2023-08-24T10:15:34;101461.69;;;22.15
69857;BMP280;57147;53.582;10.112;2023-08-24T10:20:36;101471.59;;;22.08
69857;BMP280;57147;53.582;10.112;2023-08-24T10:25:37;101475.06;;;22.08
69857;BMP280;57147;53.582;10.112;2023-08-24T10:30:41;101466.38;;;22.18
69857;BMP280;57147;53.582;10.112;2023-08-24T10:35:43;101440.09;;;22.19
69857;BMP280;57147;53.582;10.112;2023-08-24T10:40:43;101391.41;;;22.19
69857;BMP280;57147;53.582;10.112;2023-08-24T10:46:00;101410.59;;;22.56
69857;BMP280;57147;53.582;10.112;2023-08-24T10:51:16;101406.16;;;22.67
69857;BMP280;57147;53.582;10.112;2023-08-24T10:56:17;101412.91;;;22.76
69857;BMP280;57147;53.582;10.112;2023-08-24T11:01:21;101418.03;;;22.85
69857;BMP280;57147;53.582;10.112;2023-08-24T11:06:26;101410.34;;;22.87
69857;BMP280;57147;53.582;10.112;2023-08-24T11:11:27;101386.81;;;23.21
69857;BMP280;57147;53.582;10.112;2023-08-24T11:16:41;101386.31;;;23.42
69857;BMP280;57147;53.582;10.112;2023-08-24T11:21:44;101365.47;;;23.46
69857;BMP280;57147;53.582;10.112;2023-08-24T11:26:47;101349.47;;;23.67
69857;BMP280;57147;53.582;10.112;2023-08-24T11:31:51;101348.78;;;23.77
69857;BMP280;57147;53.582;10.112;2023-08-24T11:36:52;101345.00;;;23.85
69857;BMP280;57147;53.582;10.112;2023-08-24T11:41:59;101357.75;;;23.81
69857;BMP280;57147;53.582;10.112;2023-08-24T11:47:03;101351.19;;;23.82
69857;BMP280;57147;53.582;10.112;2023-08-24T11:52:04;101313.31;;;23.96
69857;BMP280;57147;53.582;10.112;2023-08-24T11:57:05;101307.25;;;24.13
69857;BMP280;57147;53.582;10.112;2023-08-24T12:02:09;101285.66;;;24.27
69857;BMP280;57147;53.582;10.112;2023-08-24T12:07:11;101280.41;;;24.52
69857;BMP280;57147;53.582;10.112;2023-08-24T12:12:12;101254.88;;;24.64
69857;BMP280;57147;53.582;10.112;2023-08-24T12:17:16;101254.88;;;24.74
69857;BMP280;57147;53.582;10.112;2023-08-24T12:22:19;101245.22;;;24.84
69857;BMP280;57147;53.582;10.112;2023-08-24T12:27:20;101272.09;;;25.10
69857;BMP280;57147;53.582;10.112;2023-08-24T12:32:23;101174.59;;;24.63
69857;BMP280;57147;53.582;10.112;2023-08-24T12:37:24;101262.84;;;25.36
69857;BMP280;57147;53.582;10.112;2023-08-24T12:42:24;101257.06;;;25.52
69857;BMP280;57147;53.582;10.112;2023-08-24T12:47:27;101266.78;;;25.56
69857;BMP280;57147;53.582;10.112;2023-08-24T12:52:29;101238.41;;;25.39
69857;BMP280;57147;53.582;10.112;2023-08-24T12:57:29;101213.16;;;25.49
69857;BMP280;57147;53.582;10.112;2023-08-24T13:02:32;101190.66;;;25.53
69857;BMP280;57147;53.582;10.112;2023-08-24T13:07:33;101187.50;;;25.65
69857;BMP280;57147;53.582;10.112;2023-08-24T13:12:34;101191.38;;;25.78
69857;BMP280;57147;53.582;10.112;2023-08-24T13:17:37;101185.16;;;25.88
69857;BMP280;57147;53.582;10.112;2023-08-24T13:22:38;101218.59;;;25.85
69857;BMP280;57147;53.582;10.112;2023-08-24T13:27:39;101185.94;;;25.85
69857;BMP280;57147;53.582;10.112;2023-08-24T13:32:42;101179.34;;;25.86
69857;BMP280;57147;53.582;10.112;2023-08-24T13:37:42;101187.44;;;26.07
69857;BMP280;57147;53.582;10.112;2023-08-24T13:42:44;101200.69;;;25.98
69857;BMP280;57147;53.582;10.112;2023-08-24T13:47:47;101166.53;;;25.72
69857;BMP280;57147;53.582;10.112;2023-08-24T13:52:49;101171.97;;;25.76
69857;BMP280;57147;53.582;10.112;2023-08-24T13:57:49;101184.00;;;25.75
69857;BMP280;57147;53.582;10.112;2023-08-24T14:02:52;101147.09;;;25.70
69857;BMP280;57147;53.582;10.112;2023-08-24T14:07:53;101148.63;;;25.82
69857;BMP280;57147;53.582;10.112;2023-08-24T14:12:54;101145.13;;;25.71
69857;BMP280;57147;53.582;10.112;2023-08-24T14:17:57;101143.25;;;25.54
69857;BMP280;57147;53.582;10.112;2023-08-24T14:22:57;101153.31;;;25.67
69857;BMP280;57147;53.582;10.112;2023-08-24T14:27:58;101140.47;;;25.75
69857;BMP280;57147;53.582;10.112;2023-08-24T14:33:01;101106.69;;;25.62
69857;BMP280;57147;53.582;10.112;2023-08-24T14:38:02;101116.00;;;25.82
69857;BMP280;57147;53.582;10.112;2023-08-24T14:43:03;101128.38;;;25.90
69857;BMP280;57147;53.582;10.112;2023-08-24T14:48:06;101132.31;;;25.89
69857;BMP280;57147;53.582;10.112;2023-08-24T14:53:07;101129.97;;;25.84
69857;BMP280;57147;53.582;10.112;2023-08-24T14:58:07;101121.44;;;25.82
69857;BMP280;57147;53.582;10.112;2023-08-24T15:03:11;101108.59;;;25.82
69857;BMP280;57147;53.582;10.112;2023-08-24T15:08:13;101117.16;;;25.81
69857;BMP280;57147;53.582;10.112;2023-08-24T15:13:13;101108.63;;;25.72
69857;BMP280;57147;53.582;10.112;2023-08-24T15:18:16;101112.91;;;25.66
69857;BMP280;57147;53.582;10.112;2023-08-24T15:23:21;101094.69;;;25.56
69857;BMP280;57147;53.582;10.112;2023-08-24T15:28:22;101095.81;;;25.62
69857;BMP280;57147;53.582;10.112;2023-08-24T15:33:26;101096.59;;;25.62
69857;BMP280;57147;53.582;10.112;2023-08-24T15:38:26;101071.78;;;25.49
69857;BMP280;57147;53.582;10.112;2023-08-24T15:43:27;101088.09;;;25.57
69857;BMP280;57147;53.582;10.112;2023-08-24T15:48:30;101071.78;;;25.46
69857;BMP280;57147;53.582;10.112;2023-08-24T15:53:30;101071.78;;;25.35
69857;BMP280;57147;53.582;10.112;2023-08-24T15:58:31;101059.38;;;25.27
69857;BMP280;57147;53.582;10.112;2023-08-24T16:03:34;101048.13;;;25.11
69857;BMP280;57147;53.582;10.112;2023-08-24T16:08:35;101051.63;;;25.12
69857;BMP280;57147;53.582;10.112;2023-08-24T16:13:36;101061.34;;;25.06
69857;BMP280;57147;53.582;10.112;2023-08-24T16:18:39;101055.91;;;25.02
69857;BMP280;57147;53.582;10.112;2023-08-24T16:23:40;101048.53;;;24.92
69857;BMP280;57147;53.582;10.112;2023-08-24T16:28:40;101048.88;;;24.87
69857;BMP280;57147;53.582;10.112;2023-08-24T16:33:43;101057.03;;;24.87
69857;BMP280;57147;53.582;10.112;2023-08-24T16:38:44;101055.50;;;24.79
69857;BMP280;57147;53.582;10.112;2023-08-24T16:43:45;101046.94;;;24.73
69857;BMP280;57147;53.582;10.112;2023-08-24T16:48:48;101035.72;;;24.68
69857;BMP280;57147;53.582;10.112;2023-08-24T16:53:49;101020.59;;;24.60
69857;BMP280;57147;53.582;10.112;2023-08-24T16:58:49;101011.25;;;24.54
69857;BMP280;57147;53.582;10.112;2023-08-24T17:03:52;100994.97;;;24.47
69857;BMP280;57147;53.582;10.112;2023-08-24T17:08:53;100995.72;;;24.43
69857;BMP280;57147;53.582;10.112;2023-08-24T17:13:53;100987.97;;;24.38
69857;BMP280;57147;53.582;10.112;2023-08-24T17:18:57;100944.47;;;24.07
69857;BMP280;57147;53.582;10.112;2023-08-24T17:23:57;100975.53;;;24.30
69857;BMP280;57147;53.582;10.112;2023-08-24T17:28:58;100966.22;;;24.24
69857;BMP280;57147;53.582;10.112;2023-08-24T17:34:01;100961.56;;;24.21
69857;BMP280;57147;53.582;10.112;2023-08-24T17:39:02;100948.38;;;24.16
69857;BMP280;57147;53.582;10.112;2023-08-24T17:44:02;100945.22;;;24.07
69857;BMP280;57147;53.582;10.112;2023-08-24T17:49:06;100939.81;;;24.07
69857;BMP280;57147;53.582;10.112;2023-08-24T17:54:06;100902.56;;;23.90
69857;BMP280;57147;53.582;10.112;2023-08-24T17:59:07;100921.56;;;23.97
69857;BMP280;57147;53.582;10.112;2023-08-24T18:04:10;100910.72;;;23.94
69857;BMP280;57147;53.582;10.112;2023-08-24T18:09:11;100879.28;;;23.68
69857;BMP280;57147;53.582;10.112;2023-08-24T18:14:12;100910.34;;;23.84
69857;BMP280;57147;53.582;10.112;2023-08-24T18:19:15;100907.59;;;23.81
69857;BMP280;57147;53.582;10.112;2023-08-24T18:24:16;100914.94;;;23.77
69857;BMP280;57147;53.582;10.112;2023-08-24T18:29:16;100895.56;;;23.68
69857;BMP280;57147;53.582;10.112;2023-08-24T18:34:19;100891.66;;;23.69
69857;BMP280;57147;53.582;10.112;2023-08-24T18:39:20;100882.34;;;23.59
69857;BMP280;57147;53.582;10.112;2023-08-24T18:44:21;100882.34;;;23.63
69857;BMP280;57147;53.582;10.112;2023-08-24T18:49:24;100883.13;;;23.60
69857;BMP280;57147;53.582;10.112;2023-08-24T18:54:24;100873.81;;;23.54
69857;BMP280;57147;53.582;10.112;2023-08-24T18:59:25;100886.94;;;23.52
69857;BMP280;57147;53.582;10.112;2023-08-24T19:04:28;100885.78;;;23.49
69857;BMP280;57147;53.582;10.112;2023-08-24T19:09:29;100885.38;;;23.44
69857;BMP280;57147;53.582;10.112;2023-08-24T19:14:29;100883.03;;;23.38
69857;BMP280;57147;53.582;10.112;2023-08-24T19:19:32;100874.84;;;23.31
69857;BMP280;57147;53.582;10.112;2023-08-24T19:24:33;100893.84;;;23.35
69857;BMP280;57147;53.582;10.112;2023-08-24T19:29:33;100890.72;;;23.26
69857;BMP280;57147;53.582;10.112;2023-08-24T19:34:37;100867.84;;;23.23
69857;BMP280;57147;53.582;10.112;2023-08-24T19:39:37;100856.63;;;23.21
69857;BMP280;57147;53.582;10.112;2023-08-24T19:44:38;100867.44;;;23.18
69857;BMP280;57147;53.582;10.112;2023-08-24T19:49:41;100871.31;;;23.20
69857;BMP280;57147;53.582;10.112;2023-08-24T19:54:42;100862.03;;;23.21
69857;BMP280;57147;53.582;10.112;2023-08-24T19:59:42;100800.78;;;22.96
69857;BMP280;57147;53.582;10.112;2023-08-24T20:04:46;100689.81;;;22.34
69857;BMP280;57147;53.582;10.112;2023-08-24T20:09:46;100626.22;;;21.93
69857;BMP280;57147;53.582;10.112;2023-08-24T20:14:47;100624.69;;;21.95
69857;BMP280;57147;53.582;10.112;2023-08-24T20:19:50;100681.16;;;22.04
69857;BMP280;57147;53.582;10.112;2023-08-24T20:24:51;100707.47;;;22.10
69857;BMP280;57147;53.582;10.112;2023-08-24T20:29:51;100712.97;;;22.28
69857;BMP280;57147;53.582;10.112;2023-08-24T20:34:54;100732.34;;;22.33
69857;BMP280;57147;53.582;10.112;2023-08-24T20:39:55;100766.50;;;22.56
69857;BMP280;57147;53.582;10.112;2023-08-24T20:44:56;100766.16;;;22.61
69857;BMP280;57147;53.582;10.112;2023-08-24T20:49:59;100768.84;;;22.61
69857;BMP280;57147;53.582;10.112;2023-08-24T20:54:59;100757.66;;;22.59
69857;BMP280;57147;53.582;10.112;2023-08-24T21:00:00;100762.69;;;22.64
69857;BMP280;57147;53.582;10.112;2023-08-24T21:05:04;100756.50;;;22.67
69857;BMP280;57147;53.582;10.112;2023-08-24T21:10:05;100728.63;;;22.56
69857;BMP280;57147;53.582;10.112;2023-08-24T21:15:06;100555.34;;;22.34
69857;BMP280;57147;53.582;10.112;2023-08-24T21:20:10;100480.31;;;22.14
69857;BMP280;57147;53.582;10.112;2023-08-24T21:25:11;100542.91;;;22.12
69857;BMP280;57147;53.582;10.112;2023-08-24T21:30:12;100510.47;;;22.12
69857;BMP280;57147;53.582;10.112;2023-08-24T21:35:15;100534.38;;;22.03
69857;BMP280;57147;53.582;10.112;2023-08-24T21:40:16;100538.25;;;22.06
69857;BMP280;57147;53.582;10.112;2023-08-24T21:45:17;100583.84;;;22.07
69857;BMP280;57147;53.582;10.112;2023-08-24T21:50:20;100598.16;;;22.11
69857;BMP280;57147;53.582;10.112;2023-08-24T21:55:20;100574.50;;;22.01
69857;BMP280;57147;53.582;10.112;2023-08-24T22:00:21;100578.00;;;22.05
69857;BMP280;57147;53.582;10.112;2023-08-24T22:05:25;100572.94;;;21.93
69857;BMP280;57147;53.582;10.112;2023-08-24T22:10:25;100574.47;;;21.94
69857;BMP280;57147;53.582;10.112;2023-08-24T22:15:26;100564.38;;;21.84
69857;BMP280;57147;53.582;10.112;2023-08-24T22:20:29;100564.72;;;21.79
69857;BMP280;57147;53.582;10.112;2023-08-24T22:25:31;100544.94;;;21.68
69857;BMP280;57147;53.582;10.112;2023-08-24T22:30:31;100541.06;;;21.65
69857;BMP280;57147;53.582;10.112;2023-08-24T22:35:34;100533.69;;;21.59
69857;BMP280;57147;53.582;10.112;2023-08-24T22:40:35;100542.47;;;21.49
69857;BMP280;57147;53.582;10.112;2023-08-24T22:45:36;100521.63;;;21.46
69857;BMP280;57147;53.582;10.112;2023-08-24T22:50:39;100512.72;;;21.45
69857;BMP280;57147;53.582;10.112;2023-08-24T22:55:40;100515.38;;;21.38
69857;BMP280;57147;53.582;10.112;2023-08-24T23:00:40;100512.22;;;21.25
69857;BMP280;57147;53.582;10.112;2023-08-24T23:05:44;100493.69;;;21.27
69857;BMP280;57147;53.582;10.112;2023-08-24T23:10:44;100475.84;;;21.12
69857;BMP280;57147;53.582;10.112;2023-08-24T23:15:45;100475.84;;;21.12
69857;BMP280;57147;53.582;10.112;2023-08-24T23:20:49;100468.88;;;21.11
69857;BMP280;57147;53.582;10.112;2023-08-24T23:25:50;100468.09;;;21.07
69857;BMP280;57147;53.582;10.112;2023-08-24T23:30:51;100464.19;;;21.01
69857;BMP280;57147;53.582;10.112;2023-08-24T23:35:54;100463.75;;;20.99
69857;BMP280;57147;53.582;10.112;2023-08-24T23:40:56;100457.97;;;20.97
69857;BMP280;57147;53.582;10.112;2023-08-24T23:45:57;100448.59;;;20.84
69857;BMP280;57147;53.582;10.112;2023-08-24T23:51:00;100447.44;;;20.85
69857;BMP280;57147;53.582;10.112;2023-08-24T23:56:01;100438.44;;;20.70
